sensor_id;sensor_type;location;lat;lon;timestamp;pressure;altitude;pressure_sealevel;temperature;humidity
71805;BME280;59654;52.216;5.616;2023-07-29T00:00:09;100493.09;;;16.82;92.71
71805;BME280;59654;52.216;5.616;2023-07-29T00:00:45;100484.06;;;16.83;92.25
71805;BME280;59654;52.216;5.616;2023-07-29T00:01:16;100480.50;;;16.82;92.46
71805;BME280;59654;52.216;5.616;2023-07-29T00:01:46;100476.84;;;16.83;92.63
71805;BME280;59654;52.216;5.616;2023-07-29T00:02:17;100482.22;;;16.83;92.11
71805;BME280;59654;52.216;5.616;2023-07-29T00:02:48;100479.66;;;16.82;92.65
71805;BME280;59654;52.216;5.616;2023-07-29T00:03:18;100483.19;;;16.82;92.45
71805;BME280;59654;52.216;5.616;2023-07-29T00:03:49;100481.38;;;16.83;92.26
71805;BME280;59654;52.216;5.616;2023-07-29T00:04:20;100484.94;;;16.83;92.50
71805;BME280;59654;52.216;5.616;2023-07-29T00:04:51;100474.16;;;16.83;92.68
71805;BME280;59654;52.216;5.616;2023-07-29T00:05:21;100480.41;;;16.84;92.19
71805;BME280;59654;52.216;5.616;2023-07-29T00:05:52;100478.69;;;16.83;92.46
71805;BME280;59654;52.216;5.616;2023-07-29T00:06:23;100475.38;;;16.79;92.54
71805;BME280;59654;52.216;5.616;2023-07-29T00:06:54;100473.63;;;16.78;92.32
71805;BME280;59654;52.216;5.616;2023-07-29T00:07:25;100477.91;;;16.81;92.22
71805;BME280;59654;52.216;5.616;2023-07-29T00:07:55;100476.94;;;16.82;92.29
71805;BME280;59654;52.216;5.616;2023-07-29T00:08:26;100473.41;;;16.81;92.16
71805;BME280;59654;52.216;5.616;2023-07-29T00:08:57;100477.81;;;16.82;92.51
71805;BME280;59654;52.216;5.616;2023-07-29T00:09:28;100472.53;;;16.81;92.64
71805;BME280;59654;52.216;5.616;2023-07-29T00:09:58;100473.28;;;16.83;92.57
71805;BME280;59654;52.216;5.616;2023-07-29T00:10:32;100471.56;;;16.82;92.60
71805;BME280;59654;52.216;5.616;2023-07-29T00:11:03;100466.44;;;16.79;92.42
71805;BME280;59654;52.216;5.616;2023-07-29T00:11:34;100470.19;;;16.76;92.45
71805;BME280;59654;52.216;5.616;2023-07-29T00:12:05;100472.66;;;16.79;92.33
71805;BME280;59654;52.216;5.616;2023-07-29T00:12:36;100460.94;;;16.80;92.09
71805;BME280;59654;52.216;5.616;2023-07-29T00:13:07;100461.75;;;16.81;92.67
71805;BME280;59654;52.216;5.616;2023-07-29T00:13:38;100476.09;;;16.81;93.18
71805;BME280;59654;52.216;5.616;2023-07-29T00:14:09;100466.44;;;16.79;93.07
71805;BME280;59654;52.216;5.616;2023-07-29T00:14:39;100458.34;;;16.79;93.28
71805;BME280;59654;52.216;5.616;2023-07-29T00:15:11;100462.88;;;16.78;93.72
71805;BME280;59654;52.216;5.616;2023-07-29T00:15:42;100460.19;;;16.78;93.58
71805;BME280;59654;52.216;5.616;2023-07-29T00:16:13;100462.88;;;16.78;93.19
71805;BME280;59654;52.216;5.616;2023-07-29T00:16:46;100462.75;;;16.80;93.30
71805;BME280;59654;52.216;5.616;2023-07-29T00:17:16;100455.66;;;16.79;93.14
71805;BME280;59654;52.216;5.616;2023-07-29T00:17:47;100459.31;;;16.78;93.10
71805;BME280;59654;52.216;5.616;2023-07-29T00:18:18;100456.63;;;16.78;92.90
71805;BME280;59654;52.216;5.616;2023-07-29T00:18:49;100462.88;;;16.78;93.12
71805;BME280;59654;52.216;5.616;2023-07-29T00:19:20;100456.63;;;16.78;93.30
71805;BME280;59654;52.216;5.616;2023-07-29T00:19:53;100456.63;;;16.78;92.98
71805;BME280;59654;52.216;5.616;2023-07-29T00:20:24;100454.78;;;16.78;93.12
71805;BME280;59654;52.216;5.616;2023-07-29T00:20:55;100452.19;;;16.77;93.50
71805;BME280;59654;52.216;5.616;2023-07-29T00:21:26;100457.59;;;16.77;92.83
71805;BME280;59654;52.216;5.616;2023-07-29T00:21:56;100459.31;;;16.78;93.18
71805;BME280;59654;52.216;5.616;2023-07-29T00:22:27;100458.56;;;16.76;93.12
71805;BME280;59654;52.216;5.616;2023-07-29T00:22:58;100450.47;;;16.76;93.25
71805;BME280;59654;52.216;5.616;2023-07-29T00:23:30;100456.72;;;16.76;92.73
71805;BME280;59654;52.216;5.616;2023-07-29T00:24:00;100451.44;;;16.75;92.70
71805;BME280;59654;52.216;5.616;2023-07-29T00:24:31;100455.97;;;16.74;92.59
71805;BME280;59654;52.216;5.616;2023-07-29T00:25:02;100454.13;;;16.75;92.90
71805;BME280;59654;52.216;5.616;2023-07-29T00:25:33;100450.59;;;16.74;92.93
71805;BME280;59654;52.216;5.616;2023-07-29T00:26:04;100442.59;;;16.73;92.40
71805;BME280;59654;52.216;5.616;2023-07-29T00:26:34;100453.28;;;16.74;92.45
71805;BME280;59654;52.216;5.616;2023-07-29T00:27:05;100451.53;;;16.73;92.43
71805;BME280;59654;52.216;5.616;2023-07-29T00:27:36;100447.13;;;16.72;92.25
71805;BME280;59654;52.216;5.616;2023-07-29T00:28:07;100444.53;;;16.71;92.79
71805;BME280;59654;52.216;5.616;2023-07-29T00:28:38;100452.72;;;16.69;92.64
71805;BME280;59654;52.216;5.616;2023-07-29T00:29:09;100442.91;;;16.68;92.73
71805;BME280;59654;52.216;5.616;2023-07-29T00:29:40;100450.03;;;16.69;92.62
71805;BME280;59654;52.216;5.616;2023-07-29T00:30:11;100440.34;;;16.67;93.22
71805;BME280;59654;52.216;5.616;2023-07-29T00:30:42;100446.59;;;16.67;93.07
71805;BME280;59654;52.216;5.616;2023-07-29T00:31:13;100441.44;;;16.64;93.43
71805;BME280;59654;52.216;5.616;2023-07-29T00:31:44;100436.88;;;16.65;93.40
71805;BME280;59654;52.216;5.616;2023-07-29T00:32:15;100442.41;;;16.63;93.48
71805;BME280;59654;52.216;5.616;2023-07-29T00:32:45;100438.00;;;16.62;93.59
71805;BME280;59654;52.216;5.616;2023-07-29T00:33:16;100433.47;;;16.63;93.87
71805;BME280;59654;52.216;5.616;2023-07-29T00:33:47;100441.53;;;16.63;93.68
71805;BME280;59654;52.216;5.616;2023-07-29T00:34:19;100446.06;;;16.62;93.88
71805;BME280;59654;52.216;5.616;2023-07-29T00:34:49;100433.56;;;16.61;94.28
71805;BME280;59654;52.216;5.616;2023-07-29T00:35:20;100434.44;;;16.62;93.83
71805;BME280;59654;52.216;5.616;2023-07-29T00:35:51;100437.03;;;16.63;93.14
71805;BME280;59654;52.216;5.616;2023-07-29T00:36:22;100437.88;;;16.64;92.95
71805;BME280;59654;52.216;5.616;2023-07-29T00:36:52;100436.06;;;16.64;92.24
71805;BME280;59654;52.216;5.616;2023-07-29T00:37:23;100437.88;;;16.64;92.29
71805;BME280;59654;52.216;5.616;2023-07-29T00:37:54;100423.78;;;16.60;91.91
71805;BME280;59654;52.216;5.616;2023-07-29T00:38:25;100436.16;;;16.63;91.76
71805;BME280;59654;52.216;5.616;2023-07-29T00:38:55;100429.91;;;16.62;92.30
71805;BME280;59654;52.216;5.616;2023-07-29T00:39:27;100434.44;;;16.62;92.22
71805;BME280;59654;52.216;5.616;2023-07-29T00:39:58;100433.56;;;16.61;92.29
71805;BME280;59654;52.216;5.616;2023-07-29T00:40:29;100429.03;;;16.62;92.38
71805;BME280;59654;52.216;5.616;2023-07-29T00:41:06;100431.75;;;16.62;92.44
71805;BME280;59654;52.216;5.616;2023-07-29T00:41:37;100430.88;;;16.61;92.99
71805;BME280;59654;52.216;5.616;2023-07-29T00:42:09;100429.16;;;16.60;92.42
71805;BME280;59654;52.216;5.616;2023-07-29T00:42:39;100430.88;;;16.61;92.63
71805;BME280;59654;52.216;5.616;2023-07-29T00:43:13;100430.97;;;16.60;92.55
71805;BME280;59654;52.216;5.616;2023-07-29T00:43:43;100429.25;;;16.59;92.66
71805;BME280;59654;52.216;5.616;2023-07-29T00:44:14;100425.69;;;16.58;92.64
71805;BME280;59654;52.216;5.616;2023-07-29T00:44:45;100422.16;;;16.58;92.92
71805;BME280;59654;52.216;5.616;2023-07-29T00:45:16;100422.91;;;16.60;92.56
71805;BME280;59654;52.216;5.616;2023-07-29T00:45:48;100425.69;;;16.58;92.57
71805;BME280;59654;52.216;5.616;2023-07-29T00:46:21;100431.19;;;16.56;93.04
71805;BME280;59654;52.216;5.616;2023-07-29T00:46:53;100424.09;;;16.55;92.89
71805;BME280;59654;52.216;5.616;2023-07-29T00:47:25;100418.03;;;16.52;93.21
71805;BME280;59654;52.216;5.616;2023-07-29T00:47:57;100419.78;;;16.53;93.24
71805;BME280;59654;52.216;5.616;2023-07-29T00:48:28;100422.66;;;16.50;93.46
71805;BME280;59654;52.216;5.616;2023-07-29T00:49:00;100424.50;;;16.49;93.50
71805;BME280;59654;52.216;5.616;2023-07-29T00:49:32;100411.16;;;16.48;93.49
71805;BME280;59654;52.216;5.616;2023-07-29T00:50:03;100414.81;;;16.47;93.55
71805;BME280;59654;52.216;5.616;2023-07-29T00:50:35;100415.78;;;16.46;93.31
71805;BME280;59654;52.216;5.616;2023-07-29T00:51:06;100414.16;;;16.43;93.52
71805;BME280;59654;52.216;5.616;2023-07-29T00:51:37;100415.22;;;16.41;93.10
71805;BME280;59654;52.216;5.616;2023-07-29T00:52:08;100409.06;;;16.39;93.10
71805;BME280;59654;52.216;5.616;2023-07-29T00:52:41;100417.16;;;16.39;93.33
71805;BME280;59654;52.216;5.616;2023-07-29T00:53:12;100411.00;;;16.37;93.55
71805;BME280;59654;52.216;5.616;2023-07-29T00:53:43;100410.25;;;16.35;93.48
71805;BME280;59654;52.216;5.616;2023-07-29T00:54:14;100415.72;;;16.33;93.71
71805;BME280;59654;52.216;5.616;2023-07-29T00:54:45;100397.84;;;16.32;93.62
71805;BME280;59654;52.216;5.616;2023-07-29T00:55:16;100412.31;;;16.31;93.34
71805;BME280;59654;52.216;5.616;2023-07-29T00:55:47;100401.66;;;16.30;94.17
71805;BME280;59654;52.216;5.616;2023-07-29T00:56:19;100399.94;;;16.29;93.91
71805;BME280;59654;52.216;5.616;2023-07-29T00:56:50;100399.06;;;16.28;93.85
71805;BME280;59654;52.216;5.616;2023-07-29T00:57:21;100406.38;;;16.26;93.96
71805;BME280;59654;52.216;5.616;2023-07-29T00:57:54;100409.16;;;16.25;93.88
71805;BME280;59654;52.216;5.616;2023-07-29T00:58:25;100419.06;;;16.24;93.45
71805;BME280;59654;52.216;5.616;2023-07-29T00:58:56;100411.00;;;16.24;93.95
71805;BME280;59654;52.216;5.616;2023-07-29T00:59:31;100421.00;;;16.22;93.96
71805;BME280;59654;52.216;5.616;2023-07-29T01:00:02;100433.59;;;16.21;94.42
71805;BME280;59654;52.216;5.616;2023-07-29T01:00:35;100432.72;;;16.21;93.53
71805;BME280;59654;52.216;5.616;2023-07-29T01:01:08;100438.88;;;16.23;93.52
71805;BME280;59654;52.216;5.616;2023-07-29T01:01:39;100448.66;;;16.24;93.40
71805;BME280;59654;52.216;5.616;2023-07-29T01:02:09;100448.66;;;16.24;93.62
71805;BME280;59654;52.216;5.616;2023-07-29T01:02:42;100444.16;;;16.25;93.52
71805;BME280;59654;52.216;5.616;2023-07-29T01:03:13;100435.22;;;16.24;93.74
71805;BME280;59654;52.216;5.616;2023-07-29T01:03:45;100448.66;;;16.24;93.61
71805;BME280;59654;52.216;5.616;2023-07-29T01:04:16;100441.56;;;16.23;93.78
71805;BME280;59654;52.216;5.616;2023-07-29T01:04:54;100445.09;;;16.23;93.84
71805;BME280;59654;52.216;5.616;2023-07-29T01:05:33;100441.56;;;16.23;94.17
71805;BME280;59654;52.216;5.616;2023-07-29T01:08:29;100434.44;;;16.22;94.55
71805;BME280;59654;52.216;5.616;2023-07-29T01:09:21;100434.56;;;16.20;94.29
71805;BME280;59654;52.216;5.616;2023-07-29T01:11:51;100427.34;;;16.21;94.70
71805;BME280;59654;52.216;5.616;2023-07-29T01:15:22;100415.50;;;16.23;94.29
71805;BME280;59654;52.216;5.616;2023-07-29T01:16:16;100415.50;;;16.23;94.65
71805;BME280;59654;52.216;5.616;2023-07-29T01:16:56;100417.34;;;16.23;94.46
71805;BME280;59654;52.216;5.616;2023-07-29T01:17:34;100423.47;;;16.25;93.89
71805;BME280;59654;52.216;5.616;2023-07-29T01:18:20;100416.38;;;16.24;94.13
71805;BME280;59654;52.216;5.616;2023-07-29T01:19:02;100424.56;;;16.22;94.01
71805;BME280;59654;52.216;5.616;2023-07-29T01:19:59;100428.97;;;16.23;93.73
71805;BME280;59654;52.216;5.616;2023-07-29T01:20:34;100422.81;;;16.21;94.13
71805;BME280;59654;52.216;5.616;2023-07-29T01:21:10;100424.66;;;16.21;94.04
71805;BME280;59654;52.216;5.616;2023-07-29T01:21:42;100426.47;;;16.20;94.00
71805;BME280;59654;52.216;5.616;2023-07-29T01:22:13;100425.50;;;16.21;94.15
71805;BME280;59654;52.216;5.616;2023-07-29T01:22:44;100417.44;;;16.21;94.14
71805;BME280;59654;52.216;5.616;2023-07-29T01:23:15;100422.81;;;16.21;94.06
71805;BME280;59654;52.216;5.616;2023-07-29T01:23:46;100411.19;;;16.21;93.96
71805;BME280;59654;52.216;5.616;2023-07-29T01:24:17;100414.00;;;16.19;94.16
71805;BME280;59654;52.216;5.616;2023-07-29T01:24:48;100421.09;;;16.20;94.24
71805;BME280;59654;52.216;5.616;2023-07-29T01:25:19;100420.25;;;16.20;94.50
71805;BME280;59654;52.216;5.616;2023-07-29T01:25:49;100421.19;;;16.19;94.59
71805;BME280;59654;52.216;5.616;2023-07-29T01:26:20;100414.84;;;16.20;94.74
71805;BME280;59654;52.216;5.616;2023-07-29T01:26:51;100418.50;;;16.19;95.24
71805;BME280;59654;52.216;5.616;2023-07-29T01:27:24;100423.88;;;16.19;94.70
71805;BME280;59654;52.216;5.616;2023-07-29T01:27:55;100414.00;;;16.19;94.93
71805;BME280;59654;52.216;5.616;2023-07-29T01:28:27;100419.47;;;16.18;95.03
71805;BME280;59654;52.216;5.616;2023-07-29T01:28:58;100415.94;;;16.17;94.85
71805;BME280;59654;52.216;5.616;2023-07-29T01:29:29;100418.63;;;16.17;94.91
71805;BME280;59654;52.216;5.616;2023-07-29T01:30:01;100418.72;;;16.16;95.12
71805;BME280;59654;52.216;5.616;2023-07-29T01:30:40;100418.72;;;16.16;95.24
71805;BME280;59654;52.216;5.616;2023-07-29T01:31:32;100419.72;;;16.15;95.53
71805;BME280;59654;52.216;5.616;2023-07-29T01:32:12;100422.41;;;16.15;95.55
71805;BME280;59654;52.216;5.616;2023-07-29T01:33:11;100427.03;;;16.13;95.32
71805;BME280;59654;52.216;5.616;2023-07-29T01:34:23;100432.31;;;16.14;95.12
71805;BME280;59654;52.216;5.616;2023-07-29T01:35:31;100425.81;;;16.17;94.15
71805;BME280;59654;52.216;5.616;2023-07-29T01:36:12;100428.50;;;16.17;94.19
71805;BME280;59654;52.216;5.616;2023-07-29T01:36:57;100425.81;;;16.17;93.87
71805;BME280;59654;52.216;5.616;2023-07-29T01:37:33;100431.19;;;16.17;93.71
71805;BME280;59654;52.216;5.616;2023-07-29T01:38:35;100426.69;;;16.17;93.80
71805;BME280;59654;52.216;5.616;2023-07-29T01:39:07;100425.81;;;16.17;94.03
71805;BME280;59654;52.216;5.616;2023-07-29T01:39:41;100417.03;;;16.15;94.04
71805;BME280;59654;52.216;5.616;2023-07-29T01:40:13;100422.28;;;16.16;94.02
71805;BME280;59654;52.216;5.616;2023-07-29T01:40:45;100426.78;;;16.16;94.07
71805;BME280;59654;52.216;5.616;2023-07-29T01:41:20;100427.66;;;16.16;94.30
71805;BME280;59654;52.216;5.616;2023-07-29T01:41:52;100421.41;;;16.16;94.08
71805;BME280;59654;52.216;5.616;2023-07-29T01:42:23;100426.78;;;16.16;94.15
71805;BME280;59654;52.216;5.616;2023-07-29T01:42:55;100426.91;;;16.14;94.29
71805;BME280;59654;52.216;5.616;2023-07-29T01:43:31;100426.78;;;16.16;94.40
71805;BME280;59654;52.216;5.616;2023-07-29T01:44:03;100424.22;;;16.14;94.64
71805;BME280;59654;52.216;5.616;2023-07-29T01:44:36;100419.72;;;16.15;94.71
71805;BME280;59654;52.216;5.616;2023-07-29T01:45:07;100418.72;;;16.16;94.34
71805;BME280;59654;52.216;5.616;2023-07-29T01:45:39;100417.97;;;16.14;94.95
71805;BME280;59654;52.216;5.616;2023-07-29T01:46:10;100419.81;;;16.13;94.86
71805;BME280;59654;52.216;5.616;2023-07-29T01:46:44;100417.13;;;16.13;94.85
71805;BME280;59654;52.216;5.616;2023-07-29T01:47:16;100415.28;;;16.14;94.95
71805;BME280;59654;52.216;5.616;2023-07-29T01:47:47;100414.44;;;16.13;95.01
71805;BME280;59654;52.216;5.616;2023-07-29T01:48:19;100417.22;;;16.12;95.14
71805;BME280;59654;52.216;5.616;2023-07-29T01:48:50;100414.53;;;16.12;95.10
71805;BME280;59654;52.216;5.616;2023-07-29T01:49:21;100420.78;;;16.12;95.38
71805;BME280;59654;52.216;5.616;2023-07-29T01:49:51;100414.63;;;16.10;95.56
71805;BME280;59654;52.216;5.616;2023-07-29T01:50:23;100420.88;;;16.11;95.50
71805;BME280;59654;52.216;5.616;2023-07-29T01:50:53;100412.81;;;16.11;95.42
71805;BME280;59654;52.216;5.616;2023-07-29T01:51:24;100417.31;;;16.10;95.72
71805;BME280;59654;52.216;5.616;2023-07-29T01:51:55;100415.41;;;16.12;95.29
71805;BME280;59654;52.216;5.616;2023-07-29T01:52:26;100410.97;;;16.11;95.74
71805;BME280;59654;52.216;5.616;2023-07-29T01:52:57;100422.59;;;16.12;95.74
71805;BME280;59654;52.216;5.616;2023-07-29T01:53:28;100419.06;;;16.11;95.31
71805;BME280;59654;52.216;5.616;2023-07-29T01:53:59;100419.06;;;16.11;95.74
71805;BME280;59654;52.216;5.616;2023-07-29T01:54:30;100424.34;;;16.13;95.56
71805;BME280;59654;52.216;5.616;2023-07-29T01:55:02;100416.25;;;16.13;94.98
71805;BME280;59654;52.216;5.616;2023-07-29T01:55:33;100417.97;;;16.14;94.67
71805;BME280;59654;52.216;5.616;2023-07-29T01:56:04;100422.41;;;16.15;95.03
71805;BME280;59654;52.216;5.616;2023-07-29T01:56:35;100419.56;;;16.16;94.76
71805;BME280;59654;52.216;5.616;2023-07-29T01:57:06;100416.38;;;16.11;94.22
71805;BME280;59654;52.216;5.616;2023-07-29T01:57:36;100417.22;;;16.12;94.30
71805;BME280;59654;52.216;5.616;2023-07-29T01:58:07;100417.31;;;16.10;94.54
71805;BME280;59654;52.216;5.616;2023-07-29T01:58:40;100408.59;;;16.07;94.67
71805;BME280;59654;52.216;5.616;2023-07-29T01:59:11;100414.63;;;16.10;94.92
71805;BME280;59654;52.216;5.616;2023-07-29T01:59:43;100416.38;;;16.11;94.78
71805;BME280;59654;52.216;5.616;2023-07-29T02:00:16;100412.72;;;16.12;94.93
71805;BME280;59654;52.216;5.616;2023-07-29T02:00:49;100416.38;;;16.11;94.83
71805;BME280;59654;52.216;5.616;2023-07-29T02:01:20;100417.22;;;16.12;94.68
71805;BME280;59654;52.216;5.616;2023-07-29T02:01:50;100416.38;;;16.11;94.72
71805;BME280;59654;52.216;5.616;2023-07-29T02:02:21;100411.84;;;16.12;94.76
71805;BME280;59654;52.216;5.616;2023-07-29T02:02:52;100419.91;;;16.12;94.55
71805;BME280;59654;52.216;5.616;2023-07-29T02:03:23;100421.66;;;16.13;94.74
71805;BME280;59654;52.216;5.616;2023-07-29T02:03:53;100415.28;;;16.14;95.02
71805;BME280;59654;52.216;5.616;2023-07-29T02:04:25;100414.44;;;16.13;95.03
71805;BME280;59654;52.216;5.616;2023-07-29T02:04:56;100415.28;;;16.14;95.05
71805;BME280;59654;52.216;5.616;2023-07-29T02:05:27;100414.44;;;16.13;95.06
71805;BME280;59654;52.216;5.616;2023-07-29T02:05:58;100409.91;;;16.14;94.98
71805;BME280;59654;52.216;5.616;2023-07-29T02:06:29;100410.88;;;16.13;94.96
71805;BME280;59654;52.216;5.616;2023-07-29T02:07:00;100409.91;;;16.14;94.85
71805;BME280;59654;52.216;5.616;2023-07-29T02:07:30;100409.06;;;16.13;95.11
71805;BME280;59654;52.216;5.616;2023-07-29T02:08:01;100410.88;;;16.13;95.16
71805;BME280;59654;52.216;5.616;2023-07-29T02:08:32;100412.72;;;16.12;95.45
71805;BME280;59654;52.216;5.616;2023-07-29T02:09:03;100408.19;;;16.13;95.37
71805;BME280;59654;52.216;5.616;2023-07-29T02:09:35;100408.41;;;16.10;95.78
71805;BME280;59654;52.216;5.616;2023-07-29T02:10:06;100404.63;;;16.12;95.38
71805;BME280;59654;52.216;5.616;2023-07-29T02:10:38;100412.72;;;16.12;95.30
71805;BME280;59654;52.216;5.616;2023-07-29T02:11:08;100405.50;;;16.13;95.63
71805;BME280;59654;52.216;5.616;2023-07-29T02:11:39;100404.63;;;16.12;95.71
71805;BME280;59654;52.216;5.616;2023-07-29T02:12:10;100404.53;;;16.14;95.82
71805;BME280;59654;52.216;5.616;2023-07-29T02:12:44;100404.53;;;16.14;95.63
71805;BME280;59654;52.216;5.616;2023-07-29T02:13:15;100399.16;;;16.14;95.68
71805;BME280;59654;52.216;5.616;2023-07-29T02:13:46;100406.25;;;16.15;95.50
71805;BME280;59654;52.216;5.616;2023-07-29T02:14:17;100402.56;;;16.16;95.58
71805;BME280;59654;52.216;5.616;2023-07-29T02:14:47;100397.19;;;16.16;95.70
71805;BME280;59654;52.216;5.616;2023-07-29T02:15:18;100402.56;;;16.16;95.31
71805;BME280;59654;52.216;5.616;2023-07-29T02:15:49;100411.41;;;16.18;95.50
71805;BME280;59654;52.216;5.616;2023-07-29T02:16:21;100405.16;;;16.17;95.36
71805;BME280;59654;52.216;5.616;2023-07-29T02:16:53;100407.97;;;16.16;95.29
71805;BME280;59654;52.216;5.616;2023-07-29T02:17:23;100407.75;;;16.19;95.73
71805;BME280;59654;52.216;5.616;2023-07-29T02:17:54;100410.53;;;16.17;95.70
71805;BME280;59654;52.216;5.616;2023-07-29T02:18:25;100401.50;;;16.18;95.43
71805;BME280;59654;52.216;5.616;2023-07-29T02:18:56;100413.13;;;16.19;95.50
71805;BME280;59654;52.216;5.616;2023-07-29T02:19:27;100409.47;;;16.20;95.68
71805;BME280;59654;52.216;5.616;2023-07-29T02:19:58;100409.47;;;16.20;95.46
71805;BME280;59654;52.216;5.616;2023-07-29T02:20:28;100396.88;;;16.20;95.75
71805;BME280;59654;52.216;5.616;2023-07-29T02:20:59;100403.22;;;16.19;95.71
71805;BME280;59654;52.216;5.616;2023-07-29T02:21:30;100396.88;;;16.20;95.74
71805;BME280;59654;52.216;5.616;2023-07-29T02:22:01;100395.16;;;16.19;96.07
71805;BME280;59654;52.216;5.616;2023-07-29T02:22:32;100398.72;;;16.20;95.56
71805;BME280;59654;52.216;5.616;2023-07-29T02:23:03;100395.06;;;16.21;95.61
71805;BME280;59654;52.216;5.616;2023-07-29T02:23:35;100401.41;;;16.20;95.35
71805;BME280;59654;52.216;5.616;2023-07-29T02:24:10;100392.38;;;16.21;95.78
71805;BME280;59654;52.216;5.616;2023-07-29T02:24:41;100396.88;;;16.20;95.85
71805;BME280;59654;52.216;5.616;2023-07-29T02:25:12;100391.63;;;16.19;95.73
71805;BME280;59654;52.216;5.616;2023-07-29T02:25:42;100400.53;;;16.19;95.77
71805;BME280;59654;52.216;5.616;2023-07-29T02:26:13;100396.13;;;16.18;95.36
71805;BME280;59654;52.216;5.616;2023-07-29T02:26:44;100393.53;;;16.17;95.41
71805;BME280;59654;52.216;5.616;2023-07-29T02:27:14;100392.56;;;16.18;95.46
71805;BME280;59654;52.216;5.616;2023-07-29T02:27:46;100390.00;;;16.16;95.46
71805;BME280;59654;52.216;5.616;2023-07-29T02:28:17;100391.81;;;16.16;95.76
71805;BME280;59654;52.216;5.616;2023-07-29T02:28:47;100397.97;;;16.18;95.35
71805;BME280;59654;52.216;5.616;2023-07-29T02:29:18;100387.19;;;16.18;95.50
71805;BME280;59654;52.216;5.616;2023-07-29T02:29:49;100384.50;;;16.18;95.39
71805;BME280;59654;52.216;5.616;2023-07-29T02:30:20;100390.75;;;16.18;95.39
71805;BME280;59654;52.216;5.616;2023-07-29T02:31:20;100389.78;;;16.19;95.42
71805;BME280;59654;52.216;5.616;2023-07-29T02:31:52;100388.91;;;16.19;95.35
71805;BME280;59654;52.216;5.616;2023-07-29T02:32:23;100385.25;;;16.20;95.48
71805;BME280;59654;52.216;5.616;2023-07-29T02:32:54;100387.09;;;16.19;95.34
71805;BME280;59654;52.216;5.616;2023-07-29T02:33:25;100391.63;;;16.19;95.57
71805;BME280;59654;52.216;5.616;2023-07-29T02:33:56;100387.19;;;16.18;95.45
71805;BME280;59654;52.216;5.616;2023-07-29T02:34:27;100392.56;;;16.18;95.60
71805;BME280;59654;52.216;5.616;2023-07-29T02:34:58;100390.75;;;16.18;95.84
71805;BME280;59654;52.216;5.616;2023-07-29T02:35:28;100389.88;;;16.18;95.93
71805;BME280;59654;52.216;5.616;2023-07-29T02:35:59;100390.75;;;16.18;95.71
71805;BME280;59654;52.216;5.616;2023-07-29T02:36:30;100387.97;;;16.20;95.80
71805;BME280;59654;52.216;5.616;2023-07-29T02:37:02;100392.47;;;16.19;96.14
71805;BME280;59654;52.216;5.616;2023-07-29T02:37:33;100388.81;;;16.20;95.88
71805;BME280;59654;52.216;5.616;2023-07-29T02:38:03;100390.66;;;16.20;96.14
71805;BME280;59654;52.216;5.616;2023-07-29T02:38:34;100392.38;;;16.21;95.93
71805;BME280;59654;52.216;5.616;2023-07-29T02:39:05;100386.13;;;16.20;95.91
71805;BME280;59654;52.216;5.616;2023-07-29T02:39:37;100391.41;;;16.22;96.10
71805;BME280;59654;52.216;5.616;2023-07-29T02:40:08;100387.00;;;16.21;96.12
71805;BME280;59654;52.216;5.616;2023-07-29T02:40:39;100390.44;;;16.23;96.00
71805;BME280;59654;52.216;5.616;2023-07-29T02:41:10;100390.44;;;16.23;95.98
71805;BME280;59654;52.216;5.616;2023-07-29T02:41:43;100391.41;;;16.22;95.79
71805;BME280;59654;52.216;5.616;2023-07-29T02:42:13;100389.38;;;16.26;95.83
71805;BME280;59654;52.216;5.616;2023-07-29T02:42:44;100394.66;;;16.27;95.72
71805;BME280;59654;52.216;5.616;2023-07-29T02:43:15;100389.38;;;16.26;96.01
71805;BME280;59654;52.216;5.616;2023-07-29T02:43:49;100387.44;;;16.28;95.88
71805;BME280;59654;52.216;5.616;2023-07-29T02:44:21;100390.88;;;16.30;95.89
71805;BME280;59654;52.216;5.616;2023-07-29T02:44:51;100388.19;;;16.30;95.83
71805;BME280;59654;52.216;5.616;2023-07-29T02:45:23;100389.94;;;16.31;95.86
71805;BME280;59654;52.216;5.616;2023-07-29T02:45:53;100391.66;;;16.32;96.28
71805;BME280;59654;52.216;5.616;2023-07-29T02:46:24;100388.81;;;16.33;95.99
71805;BME280;59654;52.216;5.616;2023-07-29T02:46:55;100388.81;;;16.33;95.87
71805;BME280;59654;52.216;5.616;2023-07-29T02:47:26;100387.00;;;16.34;95.67
71805;BME280;59654;52.216;5.616;2023-07-29T02:47:57;100384.31;;;16.34;95.82
71805;BME280;59654;52.216;5.616;2023-07-29T02:48:28;100390.53;;;16.34;95.64
71805;BME280;59654;52.216;5.616;2023-07-29T02:48:59;100387.00;;;16.34;96.06
71805;BME280;59654;52.216;5.616;2023-07-29T02:49:30;100389.59;;;16.35;95.82
71805;BME280;59654;52.216;5.616;2023-07-29T02:50:00;100381.50;;;16.35;95.48
71805;BME280;59654;52.216;5.616;2023-07-29T02:50:31;100393.03;;;16.37;95.52
71805;BME280;59654;52.216;5.616;2023-07-29T02:51:05;100387.66;;;16.37;95.68
71805;BME280;59654;52.216;5.616;2023-07-29T02:51:35;100385.06;;;16.36;95.77
71805;BME280;59654;52.216;5.616;2023-07-29T02:52:06;100385.94;;;16.36;95.47
71805;BME280;59654;52.216;5.616;2023-07-29T02:52:37;100381.63;;;16.34;95.14
71805;BME280;59654;52.216;5.616;2023-07-29T02:53:08;100387.75;;;16.36;95.54
71805;BME280;59654;52.216;5.616;2023-07-29T02:53:38;100383.34;;;16.35;95.73
71805;BME280;59654;52.216;5.616;2023-07-29T02:54:10;100382.59;;;16.33;95.54
71805;BME280;59654;52.216;5.616;2023-07-29T02:54:40;100381.63;;;16.34;95.70
71805;BME280;59654;52.216;5.616;2023-07-29T02:55:11;100390.53;;;16.34;95.66
71805;BME280;59654;52.216;5.616;2023-07-29T02:55:42;100382.59;;;16.33;95.74
71805;BME280;59654;52.216;5.616;2023-07-29T02:56:13;100381.63;;;16.34;95.78
71805;BME280;59654;52.216;5.616;2023-07-29T02:56:44;100378.06;;;16.33;95.66